馬公航空站 - ATIS

METAR RCQC 200630Z 02023G33KT 9999 FEW008 SCT016 BKN060 21/14 Q1015 NOSIG RMK A2999=

站台狀態:Online
最後更新:2022-01-20 21:00:02